Time;durP1;ratioP1;P1;durP2;ratioP2;P2;SDS_P1;SDS_P2;PMS_P1;PMS_P2;Temp;Humidity;BMP_temperature;BMP_pressure;BME280_temperature;BME280_humidity;BME280_pressure;Samples;Min_cycle;Max_cycle;Signal;HPM_P1;HPM_P2
2023/12/06 00:01:51;;;;;;;;;13.50;12.75;;;;;8.84;72.86;100937.97;5075218;27;45387;-67
2023/12/06 00:04:16;;;;;;;;;16.25;13.00;;;;;8.98;72.68;100964.28;5059846;28;45388;-64
2023/12/06 00:06:42;;;;;;;;;18.00;15.75;;;;;9.02;72.93;100980.88;5059707;28;45268;-63
2023/12/06 00:09:15;;;;;;;;;16.50;15.75;;;;;9.02;72.63;100975.66;5059554;28;45508;-65
2023/12/06 00:11:43;;;;;;;;;15.25;14.00;;;;;8.99;72.84;100980.81;5060759;28;45292;-64
2023/12/06 00:14:09;;;;;;;;;11.50;10.00;;;;;8.97;72.62;100980.81;5059801;28;45380;-64
2023/12/06 00:16:39;;;;;;;;;19.00;12.50;;;;;8.97;72.92;100988.66;5060688;28;45212;-64
2023/12/06 00:19:05;;;;;;;;;17.75;13.00;;;;;8.57;72.84;100914.16;5059273;28;45510;-64
2023/12/06 00:21:30;;;;;;;;;14.50;13.75;;;;;8.21;73.13;100855.31;5048822;27;46265;-65
2023/12/06 00:23:56;;;;;;;;;15.75;14.25;;;;;8.25;72.84;100878.00;5055334;28;46716;-65
2023/12/06 00:26:22;;;;;;;;;17.00;13.50;;;;;8.96;72.74;100999.09;5060301;28;45395;-66
2023/12/06 00:28:47;;;;;;;;;17.00;13.75;;;;;8.67;73.07;100943.00;5046163;28;46397;-64
2023/12/06 00:31:13;;;;;;;;;17.50;13.50;;;;;8.84;73.10;100977.16;5045113;28;45536;-63
2023/12/06 00:33:39;;;;;;;;;16.00;14.00;;;;;8.83;73.70;100967.59;5060050;28;45353;-64
2023/12/06 00:36:08;;;;;;;;;15.00;13.25;;;;;8.94;72.96;100982.50;5059586;28;45425;-65
2023/12/06 00:38:34;;;;;;;;;15.75;13.00;;;;;8.94;72.89;100977.28;5058766;28;46390;-66
2023/12/06 00:41:00;;;;;;;;;18.00;11.75;;;;;9.00;72.71;100991.31;5058572;28;45492;-64
2023/12/06 00:43:26;;;;;;;;;17.00;14.50;;;;;8.76;72.27;100957.06;5058917;28;45454;-64
2023/12/06 00:45:54;;;;;;;;;14.75;8.25;;;;;8.95;72.55;100985.16;5059499;28;45782;-63
2023/12/06 00:48:20;;;;;;;;;17.00;12.25;;;;;8.99;72.42;100997.38;5060083;28;46480;-64
2023/12/06 00:50:45;;;;;;;;;9.50;9.50;;;;;9.00;72.23;100996.53;5059972;28;45484;-65
2023/12/06 00:53:14;;;;;;;;;12.75;10.75;;;;;8.77;72.25;100964.00;5074377;27;46169;-64
2023/12/06 00:55:43;;;;;;;;;21.75;14.00;;;;;8.80;72.01;100966.66;5058867;27;45441;-66
2023/12/06 00:58:08;;;;;;;;;11.00;8.50;;;;;9.00;72.32;101017.44;5058516;28;45576;-66
2023/12/06 01:00:34;;;;;;;;;13.00;11.00;;;;;8.41;72.56;100902.63;5059919;28;45446;-64
2023/12/06 01:03:00;;;;;;;;;14.25;12.50;;;;;9.00;72.63;101012.22;5060010;28;45465;-63
2023/12/06 01:05:26;;;;;;;;;13.00;9.25;;;;;8.72;72.33;100958.72;5060114;28;45320;-64
2023/12/06 01:07:51;;;;;;;;;15.00;12.75;;;;;8.94;72.06;101000.78;5059833;27;45519;-66
2023/12/06 01:10:17;;;;;;;;;13.75;11.75;;;;;8.97;71.81;101014.78;5057931;28;45516;-67
2023/12/06 01:12:43;;;;;;;;;12.00;11.25;;;;;8.84;72.30;100994.56;5057954;28;45506;-65
2023/12/06 01:15:09;;;;;;;;;14.25;11.75;;;;;8.85;72.43;100998.94;5059367;28;45552;-68
2023/12/06 01:17:35;;;;;;;;;11.75;10.25;;;;;8.17;72.22;100887.47;5059045;28;46670;-64
2023/12/06 01:20:02;;;;;;;;;13.50;11.50;;;;;8.90;72.10;101007.72;5059982;28;45546;-63
2023/12/06 01:22:28;;;;;;;;;10.00;10.00;;;;;8.85;71.79;100999.84;5040484;28;45584;-64
2023/12/06 01:24:58;;;;;;;;;15.25;9.25;;;;;8.97;72.20;101026.94;5043986;28;45414;-66
2023/12/06 01:27:23;;;;;;;;;11.00;11.00;;;;;8.96;71.45;101020.84;5048124;28;46400;-63
2023/12/06 01:29:49;;;;;;;;;13.00;10.00;;;;;8.88;71.60;101009.44;5041008;28;45422;-66
2023/12/06 01:32:15;;;;;;;;;10.75;9.25;;;;;8.85;71.87;101012.91;5055102;28;45775;-64
2023/12/06 01:34:40;;;;;;;;;7.25;7.25;;;;;8.87;71.64;101018.13;5049223;28;45493;-64
2023/12/06 01:37:06;;;;;;;;;10.25;8.50;;;;;8.87;71.85;101021.63;5053425;28;45545;-64
2023/12/06 01:39:31;;;;;;;;;14.75;10.75;;;;;8.95;71.53;101037.41;5041121;28;45513;-63
2023/12/06 01:41:57;;;;;;;;;12.50;8.00;;;;;8.95;71.23;101037.41;5041926;28;45517;-65
2023/12/06 01:45:11;;;;;;;;;11.25;8.75;;;;;8.93;71.70;101043.47;5044693;28;45319;-64
2023/12/06 01:47:38;;;;;;;;;9.00;8.75;;;;;8.89;71.28;101046.00;5040972;28;45432;-65
2023/12/06 01:50:06;;;;;;;;;9.00;9.00;;;;;8.72;71.10;101029.25;5054579;28;45728;-64
2023/12/06 01:52:31;;;;;;;;;9.50;7.50;;;;;8.90;71.11;101054.75;5041044;28;45656;-66
2023/12/06 01:54:58;;;;;;;;;12.75;9.00;;;;;8.89;71.37;101060.81;5057436;28;45489;-65
2023/12/06 01:57:27;;;;;;;;;9.50;5.25;;;;;8.80;71.44;101045.88;5056009;28;46368;-64
2023/12/06 01:59:54;;;;;;;;;11.25;9.50;;;;;8.88;71.77;101065.16;5058097;28;45216;-65
2023/12/06 02:02:20;;;;;;;;;8.50;8.00;;;;;8.83;71.29;101058.13;5057817;28;45226;-65
2023/12/06 02:04:46;;;;;;;;;6.25;5.75;;;;;8.79;71.32;101062.41;5057097;28;45577;-66
2023/12/06 02:07:12;;;;;;;;;6.00;6.00;;;;;8.75;71.41;101060.59;5056569;28;45873;-63
2023/12/06 02:09:37;;;;;;;;;12.50;7.75;;;;;8.73;71.49;101054.47;5043684;28;45518;-63
2023/12/06 02:12:03;;;;;;;;;11.75;8.50;;;;;8.81;71.31;101073.78;5057957;28;45393;-64
2023/12/06 02:14:33;;;;;;;;;8.25;7.75;;;;;8.76;71.29;101070.22;5057876;28;45382;-63
2023/12/06 02:17:00;;;;;;;;;11.75;8.00;;;;;8.81;71.25;101078.13;5056486;28;45665;-65
2023/12/06 02:19:28;;;;;;;;;8.75;7.75;;;;;8.76;71.90;101074.56;5059033;28;45317;-66
2023/12/06 02:21:55;;;;;;;;;9.50;7.25;;;;;8.73;71.87;101074.50;5058154;27;45475;-65
2023/12/06 02:24:23;;;;;;;;;8.25;8.25;;;;;8.79;71.67;101085.06;5056104;28;45557;-64
2023/12/06 02:26:52;;;;;;;;;10.00;8.75;;;;;8.41;71.79;101023.56;5056996;28;45392;-64
2023/12/06 02:29:18;;;;;;;;;14.75;10.00;;;;;8.74;71.68;101084.97;5057136;28;45790;-66
2023/12/06 02:31:47;;;;;;;;;10.25;8.25;;;;;8.78;71.38;101092.03;5057291;28;45889;-64
2023/12/06 02:34:22;;;;;;;;;8.75;8.75;;;;;8.79;71.67;101100.72;5073422;27;45429;-65
2023/12/06 02:36:52;;;;;;;;;15.50;9.50;;;;;8.76;71.83;101087.63;5073902;28;45661;-64
2023/12/06 02:39:17;;;;;;;;;7.75;7.75;;;;;8.79;71.85;101090.28;5058562;28;45497;-64
2023/12/06 02:41:43;;;;;;;;;10.00;10.00;;;;;8.78;72.61;101094.63;5042944;28;45718;-64
2023/12/06 02:44:09;;;;;;;;;9.00;9.00;;;;;8.70;71.83;101081.44;5057420;28;45801;-63
2023/12/06 02:46:36;;;;;;;;;12.50;10.00;;;;;8.70;71.76;101088.41;5056915;28;46012;-64
2023/12/06 02:49:02;;;;;;;;;10.75;10.00;;;;;8.77;71.49;101099.81;5056020;28;45536;-65
2023/12/06 02:51:28;;;;;;;;;11.50;10.00;;;;;8.77;71.63;101105.91;5056966;28;45223;-64
2023/12/06 02:53:54;;;;;;;;;16.75;13.25;;;;;8.70;71.56;101088.41;5058089;28;45326;-63
2023/12/06 02:56:19;;;;;;;;;14.50;14.00;;;;;8.68;71.25;101092.72;5057082;28;45536;-64
2023/12/06 02:58:45;;;;;;;;;12.00;10.50;;;;;8.74;71.67;101108.50;5056939;28;45571;-64
2023/12/06 03:01:10;;;;;;;;;16.25;12.75;;;;;8.66;71.02;101097.94;5056970;28;45438;-65
2023/12/06 03:03:36;;;;;;;;;12.25;11.50;;;;;8.68;71.16;101098.84;5057883;28;45268;-64
2023/12/06 03:06:02;;;;;;;;;15.75;10.50;;;;;8.72;71.71;101120.63;5058636;28;46010;-63
2023/12/06 03:08:27;;;;;;;;;18.50;13.00;;;;;8.69;71.56;101112.78;5058285;28;45390;-64
2023/12/06 03:10:53;;;;;;;;;18.00;15.75;;;;;8.72;71.88;101125.00;5057037;28;45536;-63
2023/12/06 03:13:18;;;;;;;;;18.00;15.00;;;;;8.71;71.35;101113.69;5057516;28;45502;-64
2023/12/06 03:15:44;;;;;;;;;16.00;11.75;;;;;8.57;71.88;101094.31;5056604;28;45492;-63
2023/12/06 03:18:09;;;;;;;;;20.25;13.25;;;;;8.54;71.70;101100.31;5056818;28;45449;-64
2023/12/06 03:20:35;;;;;;;;;13.75;13.25;;;;;8.64;71.50;101120.53;5056984;28;45603;-64
2023/12/06 03:23:01;;;;;;;;;12.00;9.50;;;;;8.63;72.10;101110.91;5057183;28;45563;-64
2023/12/06 03:25:26;;;;;;;;;15.00;11.75;;;;;8.63;71.65;101107.44;5057515;28;46037;-64
2023/12/06 03:27:53;;;;;;;;;14.25;10.00;;;;;8.61;71.63;101110.03;5051453;28;45777;-63
2023/12/06 03:30:18;;;;;;;;;15.00;14.75;;;;;8.54;71.63;101096.84;5049414;28;45319;-64
2023/12/06 03:32:44;;;;;;;;;15.75;12.00;;;;;8.61;71.95;101098.69;5056656;28;45501;-68
2023/12/06 03:35:09;;;;;;;;;14.00;13.25;;;;;8.58;71.45;101094.31;5056169;28;46602;-65
2023/12/06 03:37:35;;;;;;;;;12.25;10.25;;;;;8.55;71.51;101082.94;5056905;28;45675;-62
2023/12/06 03:40:00;;;;;;;;;13.25;11.00;;;;;8.54;71.70;101092.50;5052153;28;45362;-65
2023/12/06 03:42:26;;;;;;;;;10.50;9.50;;;;;8.62;71.35;101092.63;5046907;28;45330;-62
2023/12/06 03:44:51;;;;;;;;;9.00;8.00;;;;;8.62;71.17;101092.63;5056686;28;45450;-62
2023/12/06 03:47:23;;;;;;;;;14.00;11.75;;;;;8.61;71.46;101094.38;5056799;28;45580;-64
2023/12/06 03:49:49;;;;;;;;;13.25;13.25;;;;;8.60;71.00;101092.59;5055671;28;45356;-64
2023/12/06 03:52:14;;;;;;;;;13.00;12.25;;;;;8.53;70.97;101085.53;5055165;28;45639;-63
2023/12/06 03:54:40;;;;;;;;;15.00;11.00;;;;;7.67;71.12;100952.75;5056382;28;45366;-62
2023/12/06 03:57:10;;;;;;;;;16.00;13.75;;;;;8.24;70.72;101054.56;5056977;28;45410;-63
2023/12/06 03:59:36;;;;;;;;;15.50;11.00;;;;;8.11;71.32;101038.69;5056877;28;45506;-64
2023/12/06 04:02:01;;;;;;;;;15.75;12.75;;;;;8.32;71.04;101070.34;5056486;28;45334;-64
2023/12/06 04:04:33;;;;;;;;;13.25;11.75;;;;;8.15;70.99;101043.97;5056402;28;45445;-63
2023/12/06 04:06:59;;;;;;;;;13.25;10.50;;;;;8.25;71.15;101060.66;5056081;28;45324;-64
2023/12/06 04:09:24;;;;;;;;;8.75;8.25;;;;;8.25;70.78;101068.50;5056300;28;45396;-64
2023/12/06 04:11:51;;;;;;;;;5.00;4.25;;;;;8.37;70.96;101088.69;5056694;28;45382;-64
2023/12/06 04:14:16;;;;;;;;;12.75;10.00;;;;;8.31;71.20;101086.88;5055927;28;46581;-63
2023/12/06 04:16:42;;;;;;;;;9.25;6.75;;;;;8.24;70.97;101072.84;5055986;28;45499;-64
2023/12/06 04:19:08;;;;;;;;;1.50;1.50;;;;;8.29;71.19;101083.38;5056011;28;45315;-63
2023/12/06 04:21:34;;;;;;;;;12.00;10.00;;;;;8.32;70.79;101091.22;5056196;28;45456;-65
2023/12/06 04:24:06;;;;;;;;;13.75;10.00;;;;;8.29;71.00;101088.59;5055407;28;46195;-63
2023/12/06 04:26:32;;;;;;;;;12.00;8.75;;;;;8.39;70.93;101098.31;5056389;28;45957;-64
2023/12/06 04:29:01;;;;;;;;;10.50;10.50;;;;;8.37;70.99;101099.16;5056785;28;45595;-63
2023/12/06 04:31:27;;;;;;;;;13.00;10.50;;;;;8.42;70.78;101108.84;5057746;27;45306;-64
2023/12/06 04:33:52;;;;;;;;;12.50;10.25;;;;;8.44;70.79;101109.75;5056875;28;45467;-66
2023/12/06 04:36:18;;;;;;;;;12.00;10.25;;;;;8.06;70.72;101043.81;5055938;28;45426;-69
2023/12/06 04:38:45;;;;;;;;;10.75;9.50;;;;;8.35;70.50;101093.91;5056007;28;45404;-67
2023/12/06 04:41:11;;;;;;;;;13.25;10.00;;;;;8.47;70.45;101111.53;5043263;28;45422;-67
2023/12/06 04:43:37;;;;;;;;;12.75;8.00;;;;;8.42;70.53;101100.13;5042909;28;45722;-67
2023/12/06 04:46:03;;;;;;;;;12.00;9.75;;;;;8.24;70.10;101078.06;5058031;28;45312;-67
2023/12/06 04:48:32;;;;;;;;;13.25;11.00;;;;;8.49;70.38;101110.72;5060423;28;45587;-68
2023/12/06 04:50:58;;;;;;;;;8.50;8.50;;;;;8.51;70.52;101120.28;5060826;28;45490;-67
2023/12/06 04:53:23;;;;;;;;;12.00;9.75;;;;;8.52;70.61;101133.38;5060302;28;46580;-68
2023/12/06 04:55:49;;;;;;;;;14.75;11.50;;;;;8.51;70.51;101118.56;5058718;28;45339;-66
2023/12/06 04:58:14;;;;;;;;;15.50;9.50;;;;;8.50;70.50;101122.03;5058979;28;45406;-67
2023/12/06 05:00:40;;;;;;;;;14.25;11.25;;;;;8.49;70.18;101126.38;5060320;28;45481;-63
2023/12/06 05:03:05;;;;;;;;;11.00;9.50;;;;;8.48;70.16;101124.59;5060254;28;45465;-63
2023/12/06 05:05:31;;;;;;;;;15.00;8.25;;;;;8.49;70.39;101133.31;5060111;28;45462;-64
2023/12/06 05:07:57;;;;;;;;;10.50;10.50;;;;;8.31;70.46;101112.09;5060301;28;45427;-64
2023/12/06 05:10:22;;;;;;;;;15.25;13.00;;;;;8.46;70.56;101147.19;5060406;28;45308;-63
2023/12/06 05:12:48;;;;;;;;;8.75;8.75;;;;;8.37;70.44;101131.34;5060049;28;45343;-64
2023/12/06 05:15:14;;;;;;;;;9.75;9.00;;;;;8.30;70.29;101124.25;5060367;28;45464;-64
2023/12/06 05:17:45;;;;;;;;;13.75;10.25;;;;;8.43;70.22;101149.75;5058123;28;45526;-65
2023/12/06 05:20:11;;;;;;;;;14.00;10.00;;;;;8.34;70.45;101146.94;5057727;28;45385;-64
2023/12/06 05:22:37;;;;;;;;;17.50;10.75;;;;;8.34;70.49;101157.38;5059726;28;45631;-64
2023/12/06 05:25:06;;;;;;;;;13.50;9.25;;;;;8.24;70.44;101150.25;5059468;28;45433;-64
2023/12/06 05:27:32;;;;;;;;;14.00;13.00;;;;;8.24;70.53;101158.97;5055144;28;45689;-64
2023/12/06 05:29:58;;;;;;;;;14.75;12.50;;;;;8.16;71.05;101146.63;5047004;28;45433;-63
2023/12/06 05:32:24;;;;;;;;;13.75;13.00;;;;;8.20;70.80;101154.53;5058518;28;46506;-64
2023/12/06 05:34:49;;;;;;;;;12.75;11.50;;;;;8.15;70.88;101164.00;5059388;28;45397;-63
2023/12/06 05:37:15;;;;;;;;;11.25;8.75;;;;;8.17;71.16;101170.13;5058681;28;45389;-64
2023/12/06 05:39:42;;;;;;;;;10.00;10.00;;;;;8.15;71.19;101176.19;5056693;28;45441;-63
2023/12/06 05:42:07;;;;;;;;;14.00;10.25;;;;;8.17;71.09;101180.56;5047025;28;46483;-64
2023/12/06 05:44:34;;;;;;;;;11.25;10.00;;;;;8.01;71.27;101171.56;5059803;28;45721;-64
2023/12/06 05:47:00;;;;;;;;;11.75;10.25;;;;;7.93;71.44;101149.69;5058293;28;45524;-64
2023/12/06 05:49:25;;;;;;;;;10.25;9.75;;;;;7.60;71.16;101088.19;5058610;28;45483;-64
2023/12/06 05:51:51;;;;;;;;;11.50;7.50;;;;;8.15;71.21;101170.97;5059599;28;45599;-62
2023/12/06 05:54:17;;;;;;;;;12.75;9.25;;;;;8.01;71.03;101162.88;5059327;28;45189;-64
2023/12/06 05:56:43;;;;;;;;;12.25;10.50;;;;;8.16;71.17;101183.13;5057964;28;46894;-63
2023/12/06 05:59:08;;;;;;;;;11.50;11.50;;;;;8.01;71.06;101173.31;5058274;28;45472;-64
2023/12/06 06:01:34;;;;;;;;;10.75;9.00;;;;;7.85;71.08;101135.59;5058224;28;45568;-63
2023/12/06 06:04:06;;;;;;;;;8.75;8.75;;;;;8.16;71.21;101198.78;5059388;28;45540;-63
2023/12/06 06:06:35;;;;;;;;;16.50;10.25;;;;;8.15;71.40;101197.06;5058178;28;45392;-64
2023/12/06 06:09:01;;;;;;;;;10.25;9.00;;;;;8.16;71.16;101201.41;5058598;28;45338;-66
2023/12/06 06:11:32;;;;;;;;;13.00;10.50;;;;;7.59;71.37;101106.41;5058964;28;45587;-63
2023/12/06 06:13:58;;;;;;;;;10.50;8.75;;;;;7.82;71.04;101140.75;5058915;28;45539;-65
2023/12/06 06:16:23;;;;;;;;;17.00;11.25;;;;;7.62;71.49;101124.72;5056618;28;45377;-64
2023/12/06 06:18:49;;;;;;;;;9.25;9.25;;;;;8.05;71.30;101206.44;5057950;28;45334;-65
2023/12/06 06:21:15;;;;;;;;;13.00;11.00;;;;;8.00;71.27;101203.72;5057911;28;46668;-64
2023/12/06 06:23:40;;;;;;;;;12.50;10.50;;;;;7.99;71.78;101207.16;5058206;28;45496;-64
2023/12/06 06:26:09;;;;;;;;;13.50;11.00;;;;;6.99;71.79;101040.91;5056307;28;45826;-64
2023/12/06 06:28:35;;;;;;;;;11.75;11.75;;;;;7.90;71.69;101191.38;5045519;28;45375;-64
2023/12/06 06:31:03;;;;;;;;;14.25;11.50;;;;;7.74;71.65;101174.50;5054116;28;47743;-66
2023/12/06 06:33:30;;;;;;;;;18.75;13.50;;;;;8.03;71.69;101209.00;5057408;28;45413;-65
2023/12/06 06:35:56;;;;;;;;;16.50;16.25;;;;;8.05;72.06;101219.47;5057549;28;45438;-63
2023/12/06 06:38:25;;;;;;;;;17.50;15.50;;;;;8.04;71.86;101221.22;5057666;28;45387;-63
2023/12/06 06:40:51;;;;;;;;;18.00;15.75;;;;;8.06;71.61;101221.22;5046660;28;46195;-67
2023/12/06 06:43:17;;;;;;;;;19.25;16.75;;;;;8.04;71.50;101217.69;5054572;28;45514;-64
2023/12/06 06:45:43;;;;;;;;;16.25;13.25;;;;;8.13;71.49;101225.72;5058288;28;45464;-65
2023/12/06 06:48:09;;;;;;;;;13.75;11.00;;;;;8.06;71.30;101219.47;5057404;28;45423;-65
2023/12/06 06:50:35;;;;;;;;;10.25;10.25;;;;;8.16;71.46;101237.94;5057916;28;45422;-65
2023/12/06 06:53:01;;;;;;;;;13.50;11.50;;;;;8.15;71.18;101237.06;5058425;28;45405;-67
2023/12/06 06:55:27;;;;;;;;;19.75;13.25;;;;;8.19;71.34;101245.84;5057315;28;45619;-65
2023/12/06 06:57:53;;;;;;;;;11.50;10.50;;;;;8.16;70.94;101249.28;5058303;28;45401;-66
2023/12/06 07:00:19;;;;;;;;;12.75;7.75;;;;;7.90;71.27;101212.22;5058265;28;45562;-66
2023/12/06 07:02:45;;;;;;;;;20.00;10.50;;;;;8.13;70.89;101249.19;5058028;28;45448;-63
2023/12/06 07:05:12;;;;;;;;;16.00;11.25;;;;;8.13;70.88;101250.94;5056918;28;45347;-64
2023/12/06 07:07:41;;;;;;;;;11.00;10.00;;;;;8.11;71.28;101260.44;5056037;28;45642;-64
2023/12/06 07:10:09;;;;;;;;;9.00;8.75;;;;;7.83;71.26;101220.75;5054014;28;46862;-63
2023/12/06 07:12:39;;;;;;;;;13.50;10.00;;;;;8.08;71.15;101266.50;5056467;28;45452;-63
2023/12/06 07:15:05;;;;;;;;;9.25;5.75;;;;;8.08;71.20;101264.75;5057612;28;45489;-63
2023/12/06 07:17:31;;;;;;;;;7.25;7.25;;;;;8.07;71.21;101256.91;5056876;28;45299;-65
2023/12/06 07:20:00;;;;;;;;;11.50;9.25;;;;;7.83;71.28;101231.16;5056302;28;45568;-66
2023/12/06 07:22:26;;;;;;;;;13.00;10.25;;;;;8.03;71.04;101276.81;5056604;28;45276;-65
2023/12/06 07:24:52;;;;;;;;;10.25;7.00;;;;;7.04;70.87;101142.56;5057726;28;45523;-64
2023/12/06 07:27:18;;;;;;;;;12.00;10.50;;;;;7.69;71.46;101251.75;5056800;28;45483;-65
2023/12/06 07:29:44;;;;;;;;;11.00;8.00;;;;;7.69;71.50;101256.06;5045471;28;46323;-66
2023/12/06 07:32:09;;;;;;;;;14.75;11.00;;;;;7.88;71.59;101299.09;5058318;28;45424;-65
2023/12/06 07:34:35;;;;;;;;;10.00;8.25;;;;;7.51;71.50;101238.31;5058074;28;45371;-66
2023/12/06 07:37:01;;;;;;;;;11.50;11.50;;;;;7.90;71.35;101302.59;5057270;28;45597;-64
2023/12/06 07:39:27;;;;;;;;;15.50;11.50;;;;;7.91;71.68;101304.38;5056114;28;45342;-63
2023/12/06 07:41:53;;;;;;;;;14.25;11.00;;;;;7.64;71.61;101275.13;5041655;28;45185;-64
2023/12/06 07:44:20;;;;;;;;;16.75;12.25;;;;;7.72;71.79;101272.69;5056351;28;45418;-64
2023/12/06 07:46:48;;;;;;;;;16.00;12.00;;;;;7.73;71.38;101274.44;5055104;28;45478;-65
2023/12/06 07:49:13;;;;;;;;;14.25;10.75;;;;;7.84;71.45;101283.38;5056354;28;46202;-64
2023/12/06 07:51:39;;;;;;;;;12.75;11.25;;;;;7.99;71.05;101308.91;5056455;28;45523;-63
2023/12/06 07:54:05;;;;;;;;;12.75;10.25;;;;;7.86;71.57;101294.72;5055412;28;46358;-65
2023/12/06 07:56:31;;;;;;;;;13.25;12.00;;;;;8.05;70.96;101303.84;5056496;28;45448;-65
2023/12/06 07:58:57;;;;;;;;;15.00;12.50;;;;;7.97;70.80;101257.56;5056313;28;46674;-63
2023/12/06 08:01:31;;;;;;;;;10.25;9.50;;;;;8.34;70.83;101306.16;5054325;28;45835;-62
2023/12/06 08:04:06;;;;;;;;;14.75;11.50;;;;;8.81;69.82;101319.28;5054973;28;45473;-64
2023/12/06 08:06:32;;;;;;;;;11.25;10.00;;;;;9.19;69.00;101303.41;5057057;28;45480;-64
2023/12/06 08:08:57;;;;;;;;;13.50;9.25;;;;;9.89;67.00;101308.81;5051364;27;45612;-68
2023/12/06 08:11:24;;;;;;;;;12.50;9.75;;;;;10.25;65.99;101301.44;5054506;28;45496;-67
2023/12/06 08:13:49;;;;;;;;;17.75;16.50;;;;;10.42;65.26;101280.72;5055558;28;45474;-64
2023/12/06 08:16:15;;;;;;;;;9.75;8.25;;;;;11.22;63.47;101283.28;5053799;28;45548;-65
2023/12/06 08:18:41;;;;;;;;;9.75;9.50;;;;;11.98;61.51;101268.94;5055251;28;45631;-65
2023/12/06 08:21:09;;;;;;;;;13.00;10.25;;;;;12.36;60.01;101241.03;5052397;28;45612;-69
2023/12/06 08:23:35;;;;;;;;;18.25;12.50;;;;;12.66;59.19;101313.81;5056507;28;45576;-68
2023/12/06 08:26:01;;;;;;;;;10.75;9.50;;;;;12.83;58.73;101274.44;5056809;28;45559;-68
2023/12/06 08:28:27;;;;;;;;;11.67;8.67;;;;;13.00;57.08;101209.56;5052195;28;46458;-68
2023/12/06 08:30:53;;;;;;;;;15.33;11.33;;;;;13.04;56.89;101213.97;5057126;28;45374;-65
2023/12/06 08:33:19;;;;;;;;;15.33;11.00;;;;;13.85;55.50;101304.22;5058961;27;45363;-66
2023/12/06 08:35:45;;;;;;;;;14.33;11.00;;;;;13.61;55.14;101281.47;5059236;28;45469;-66
2023/12/06 08:38:12;;;;;;;;;12.67;11.67;;;;;14.21;55.06;101317.28;5056305;28;46823;-67
2023/12/06 08:40:37;;;;;;;;;17.67;13.33;;;;;14.72;53.29;101279.28;5054428;28;45429;-67
2023/12/06 08:43:04;;;;;;;;;9.67;8.33;;;;;15.27;52.14;101266.53;5057870;28;45335;-64
2023/12/06 08:45:31;;;;;;;;;14.00;10.00;;;;;15.33;51.46;101317.50;5057365;28;45579;-63
2023/12/06 08:47:58;;;;;;;;;10.33;9.33;;;;;15.96;50.68;101296.69;5057335;28;45596;-64
2023/12/06 08:50:25;;;;;;;;;11.33;10.33;;;;;15.71;50.06;101287.28;5056391;28;45421;-64
2023/12/06 08:52:51;;;;;;;;;12.33;12.33;;;;;15.38;50.85;101278.78;5056341;28;45943;-64
2023/12/06 08:55:17;;;;;;;;;18.00;13.00;;;;;16.92;48.81;101318.38;5055055;28;45963;-65
2023/12/06 08:57:43;;;;;;;;;19.00;16.00;;;;;18.28;46.00;101316.00;5057871;28;46127;-66
2023/12/06 09:00:11;;;;;;;;;15.33;12.67;;;;;18.77;45.13;101288.41;5056454;28;45415;-64
2023/12/06 09:02:38;;;;;;;;;12.67;12.00;;;;;20.07;43.43;101309.03;5057571;28;45461;-64
2023/12/06 09:05:05;;;;;;;;;15.00;11.67;;;;;21.10;40.73;101268.63;5057393;28;45841;-64
2023/12/06 09:07:31;;;;;;;;;14.67;10.00;;;;;22.43;39.01;101294.16;5057517;28;46516;-64
2023/12/06 09:09:57;;;;;;;;;12.67;12.00;;;;;23.58;36.21;101300.13;5058936;28;45505;-64
2023/12/06 09:12:23;;;;;;;;;10.00;9.00;;;;;24.58;35.41;101305.50;5059671;28;45558;-65
2023/12/06 09:14:49;;;;;;;;;18.00;11.00;;;;;25.50;33.09;101301.00;5059292;28;45405;-65
2023/12/06 09:17:14;;;;;;;;;12.50;11.25;;;;;26.31;32.03;101275.19;5057222;28;45580;-63
2023/12/06 09:19:40;;;;;;;;;14.50;11.50;;;;;27.32;30.58;101292.78;5058595;28;45488;-65
2023/12/06 09:22:09;;;;;;;;;9.50;9.25;;;;;27.95;29.46;101271.97;5058813;28;45381;-65
2023/12/06 09:24:37;;;;;;;;;15.25;13.75;;;;;28.62;28.04;101281.16;5059125;28;45475;-64
2023/12/06 09:27:03;;;;;;;;;13.50;10.50;;;;;29.23;26.84;101307.72;5059224;28;45572;-66
2023/12/06 09:29:29;;;;;;;;;9.25;9.00;;;;;29.67;26.71;101268.75;5045708;28;45437;-65
2023/12/06 09:31:55;;;;;;;;;12.25;10.50;;;;;30.18;25.81;101284.91;5059357;28;45276;-65
2023/12/06 09:34:20;;;;;;;;;14.00;12.50;;;;;30.81;24.23;101292.03;5058615;28;45575;-65
2023/12/06 09:36:50;;;;;;;;;10.75;9.25;;;;;30.98;22.97;101265.59;5058127;28;46020;-64
2023/12/06 09:39:20;;;;;;;;;12.60;10.00;;;;;31.15;23.39;101277.81;5058092;28;45508;-64
2023/12/06 09:41:54;;;;;;;;;11.60;9.60;;;;;30.97;23.54;101182.72;5044152;28;45432;-67
2023/12/06 09:44:20;;;;;;;;;12.40;11.20;;;;;32.27;22.91;101291.63;5058581;28;45812;-64
2023/12/06 09:46:48;;;;;;;;;12.60;10.20;;;;;32.86;22.11;101292.25;5057421;28;46427;-68
2023/12/06 09:49:20;;;;;;;;;11.20;9.20;;;;;33.15;20.69;101287.13;5058119;28;45420;-64
2023/12/06 09:51:47;;;;;;;;;12.40;10.60;;;;;33.09;21.24;101291.22;5057248;28;45537;-65
2023/12/06 09:54:16;;;;;;;;;12.60;11.00;;;;;33.51;21.03;101272.25;5057953;28;45441;-65
2023/12/06 09:56:45;;;;;;;;;11.80;10.00;;;;;34.16;20.04;101291.09;5056040;28;47891;-65
2023/12/06 09:59:11;;;;;;;;;12.00;12.00;;;;;34.60;20.14;101292.53;5051679;28;45555;-65
2023/12/06 10:01:36;;;;;;;;;10.00;10.00;;;;;34.92;20.25;101296.00;5070030;28;45266;-66
2023/12/06 10:04:05;;;;;;;;;10.00;9.00;;;;;34.94;19.45;101235.00;5045147;28;45335;-64
2023/12/06 10:06:34;;;;;;;;;10.80;9.40;;;;;35.52;19.00;101268.63;5050783;28;46636;-64
2023/12/06 10:09:10;;;;;;;;;8.20;8.20;;;;;35.97;18.76;101306.94;5056281;27;45522;-65
2023/12/06 10:11:35;;;;;;;;;11.80;8.40;;;;;36.13;18.12;101287.28;5046475;28;45533;-64
2023/12/06 10:14:02;;;;;;;;;12.50;11.50;;;;;36.29;17.84;101303.00;5040174;28;45374;-64
2023/12/06 10:16:27;;;;;;;;;10.60;9.60;;;;;36.39;17.99;101294.75;5041248;28;45675;-65
2023/12/06 10:18:56;;;;;;;;;13.00;9.00;;;;;36.53;17.70;101263.38;5041475;28;45525;-64
2023/12/06 10:21:22;;;;;;;;;11.60;10.40;;;;;37.13;16.75;101300.03;5048547;28;45328;-65
2023/12/06 10:24:00;;;;;;;;;10.75;10.25;;;;;37.13;16.64;101310.09;5057586;28;45498;-65
2023/12/06 10:26:29;;;;;;;;;10.40;10.20;;;;;37.40;16.68;101300.06;5055566;28;46903;-66
2023/12/06 10:28:56;;;;;;;;;10.60;10.60;;;;;37.58;16.41;101311.00;5053234;28;45502;-66
2023/12/06 10:31:22;;;;;;;;;14.00;11.80;;;;;37.22;16.11;101246.34;5049445;28;45256;-64
2023/12/06 10:34:09;;;;;;;;;10.40;10.20;;;;;37.74;16.19;101306.50;5055666;28;45555;-68
2023/12/06 10:36:36;;;;;;;;;10.20;9.00;;;;;38.00;15.92;101285.69;5039007;28;48062;-67
2023/12/06 10:39:07;;;;;;;;;8.40;7.20;;;;;38.11;15.73;101261.63;5053309;28;45560;-66
2023/12/06 10:41:35;;;;;;;;;13.80;13.80;;;;;38.49;15.67;101291.34;5057325;28;45462;-64
2023/12/06 10:44:03;;;;;;;;;13.40;11.80;;;;;38.03;15.15;101258.84;5058928;28;45422;-64
2023/12/06 10:46:30;;;;;;;;;13.60;11.00;;;;;38.32;15.87;101299.47;5057275;28;45425;-63
2023/12/06 10:48:59;;;;;;;;;14.00;11.00;;;;;38.57;15.51;101294.97;5057177;28;45387;-64
2023/12/06 10:51:25;;;;;;;;;10.20;9.60;;;;;38.71;15.41;101268.00;5056672;28;45543;-65
2023/12/06 10:53:52;;;;;;;;;14.40;11.20;;;;;38.99;15.17;101310.50;5058998;28;45489;-63
2023/12/06 10:56:19;;;;;;;;;14.60;11.20;;;;;37.99;14.94;101205.47;5058634;28;45487;-65
2023/12/06 10:58:47;;;;;;;;;13.40;11.80;;;;;38.02;15.14;101300.03;5058424;28;45517;-67
2023/12/06 11:01:16;;;;;;;;;14.40;10.60;;;;;38.27;14.95;101288.16;5058828;28;45389;-66
2023/12/06 11:03:43;;;;;;;;;24.40;20.40;;;;;37.48;15.60;101287.34;5058955;28;45546;-62
2023/12/06 11:06:24;;;;;;;;;19.80;17.80;;;;;35.99;17.02;101271.38;5058526;28;46157;-65
2023/12/06 11:09:19;;;;;;;;;15.40;15.20;;;;;32.81;18.95;101299.91;5058530;28;45496;-63
2023/12/06 11:11:56;;;;;;;;;12.00;11.80;;;;;29.88;20.83;101305.06;5056269;28;45500;-63
2023/12/06 11:14:45;;;;;;;;;16.80;15.00;;;;;27.74;23.20;101306.41;5056933;28;45582;-64
2023/12/06 11:17:29;;;;;;;;;10.60;9.60;;;;;25.29;25.38;101257.38;5056275;27;46135;-62
2023/12/06 11:19:56;;;;;;;;;13.80;11.20;;;;;24.02;27.52;101286.66;5056731;28;45438;-64